Flugplatz Wasserkuppe (EDER)

Hier findest Du alle Informationen zum Flugplatz Wasserkuppe (EDER).

Informationen für Piloten zum Flugplatz Wasserkuppe

Hier findest Du alle relevanten Informationen, die Du als Pilot benötigst, um Wasserkuppe anzufliegen.

Flugplatz: Wasserkuppe ICAO-Code: EDER
Frequenz Turm: 118,65 Mhz GAFOR Gebiet: 47
Frequenz Ground: 118,65 Mhz Mogas: nein
Platzrunde: NW 4000 ft Landegebühr: 6 €
Platzhöhe: Sunrise: 06:59 Uhr UTC
Pisten: 06/24 - 670 m x 15 m, ASPH Sunset: 16:06 Uhr UTC

Mitglieder, die in Wasserkuppe fliegen

Flugwetter am Flugplatz Wasserkuppe

Die METAR Information stammen aus EDDE (88.82 km entfernt).

METAR Code:
2023/01/20 14:20
EDDE 201420Z AUTO 01004KT 9999 FEW018 01/M02 Q1016 NOSIG

Temperatur: -1,7 °C Niederschlag: - Wind: 5,1 kt (max.: 7,5 kt in Böen)
Temperatur (min.): -2,1 °C Luftdruck: 1028 hPa Windrichtung: 22 °
Temperatur (max.): 0,6 °C Luftfeuchtigkeit: 70 % Bewölkung: 6/8

Flugschulen am Flugplatz Wasserkuppe

Am Flugplatz Wasserkuppe gibt es leider keine Flugschule.

Benachbarte Flugplätze und Flugschulen

Es gibt 13 weitere Flugplätze in einem Umkreis von 50 km um den Flugplatz Wasserkuppe.

Jetzt anmelden

Passwort vergessen

Umfrage Archiv

Sendet Ihr ADS-B und/oder FLARM?

Ja
84.7 %
Nein
15.3 %
Stimmen: 274 | Diskussion
Anzeige: Roland Aircraft
Statistik Alle Mitglieder

Aktuell sind 55 Besucher online, davon 1 Mitglied und 54 Gäste.


Mitglieder online:
Gummiadler 

Anzeige: ULPower Aero Engines Anzeige: EasyVFR